Main page
METAR-TAF:

METAR-TAF

Airports :

Governor Francisco Gabrielli International Airport

Mendoza, Argentina

latitude: 32-50S, longitude: 068-47W, elevation: 705 m

Current weather observation

The report was made 1 hour and 14 minutes ago, at 10:00 UTC
Wind 13 kt from the South
Temperature 20°C
Humidity 43%
Pressure 1019 hPa
Visibility 10 km or more
Broken clouds at a height of 4000 ft

METAR: SAME 121000Z 18013KT 9999 BKN040 20/07 Q1019

Time: 08:14 (11:14 UTC)

Forecast

The report was made 6 hours and 14 minutes ago, at 05:00 UTC
Forecast valid from 12 at 06 UTC to 13 at 06 UTC
Wind 5 kt from the South/Southwest
Visibility 10 km or more
Few clouds at a height of 3000 ft
Scattered clouds at a height of 8000 ft
Becoming
from 12 at 14 UTC to 12 at 16 UTC
Wind 5 kt from the South/Southwest

TAF: SAME 120500Z 1206/1306 20005KT 9999 FEW030 SCT080 TN18/1210ZTX30/1220Z BECMG 1214/1216 05005KT CAVOKBECMG 1301/1303 20005KT

Weather observations and forecasts of more than 4000 airports (METAR and TAF reports).

The available stations are represented by yellow and red dots on the map.

Hover mouse over dot to see the name of the station.

Then click to see weather observations and forecasts.

To change the map : click on the green buttons with a black cross to zoom in, on the green button with a dash to zoom out, or on the green arrows for adjacent maps.


METAR-TAF: